Time;durP1;ratioP1;P1;durP2;ratioP2;P2;SDS_P1;SDS_P2;PMS_P1;PMS_P2;Temp;Humidity;BMP_temperature;BMP_pressure;BME280_temperature;BME280_humidity;BME280_pressure;Samples;Min_cycle;Max_cycle;Signal;HPM_P1;HPM_P2
2023/03/26 05:04:45;;;;;;;1.80;0.70;;;9.30;99.90;;;;;;5661983;23;20227;-67
2023/03/26 05:07:17;;;;;;;1.30;1.10;;;9.20;99.90;;;;;;4996104;28;20707;-64
2023/03/26 05:09:43;;;;;;;0.90;0.88;;;9.20;99.90;;;;;;4996526;28;20815;-65
2023/03/26 05:12:09;;;;;;;1.90;1.10;;;9.20;99.90;;;;;;4996493;28;20164;-64
2023/03/26 05:14:35;;;;;;;2.57;1.03;;;9.10;99.90;;;;;;4988328;28;20192;-64
2023/03/26 05:17:04;;;;;;;1.40;1.33;;;9.10;99.90;;;;;;4975952;28;20427;-65
2023/03/26 05:19:31;;;;;;;2.35;0.73;;;9.20;99.90;;;;;;4976813;28;20195;-64
2023/03/26 05:21:56;;;;;;;0.85;0.80;;;9.10;99.90;;;;;;4976888;28;20235;-64
2023/03/26 05:24:23;;;;;;;1.17;0.97;;;9.10;99.90;;;;;;4976273;28;20196;-64
2023/03/26 05:26:51;;;;;;;0.73;0.73;;;9.10;99.90;;;;;;4976679;28;20298;-63
2023/03/26 05:29:17;;;;;;;0.85;0.85;;;9.10;99.90;;;;;;4976668;28;20216;-64
2023/03/26 05:31:43;;;;;;;4.33;1.03;;;9.10;99.90;;;;;;4976303;28;20196;-66
2023/03/26 05:34:09;;;;;;;3.03;1.00;;;9.10;99.90;;;;;;4975102;28;20231;-66
2023/03/26 05:36:35;;;;;;;1.02;0.95;;;9.10;99.90;;;;;;4975876;28;20555;-66
2023/03/26 05:39:02;;;;;;;1.00;1.00;;;9.10;99.90;;;;;;4975489;28;20187;-63
2023/03/26 05:41:27;;;;;;;1.35;1.25;;;9.10;99.90;;;;;;4976132;28;20176;-64
2023/03/26 05:43:53;;;;;;;1.90;0.60;;;9.10;99.90;;;;;;4974502;28;20176;-61
2023/03/26 05:46:20;;;;;;;0.93;0.90;;;9.10;99.90;;;;;;4976030;28;20164;-66
2023/03/26 05:48:46;;;;;;;2.85;1.05;;;9.10;99.90;;;;;;4976336;28;20262;-65
2023/03/26 05:51:14;;;;;;;0.73;0.73;;;9.10;99.90;;;;;;4976609;28;20172;-62
2023/03/26 05:53:40;;;;;;;3.42;0.98;;;9.10;99.90;;;;;;4975759;28;20180;-66
2023/03/26 05:56:06;;;;;;;4.43;1.33;;;9.20;99.90;;;;;;4976001;28;20164;-63
2023/03/26 05:58:33;;;;;;;1.13;1.00;;;9.10;99.90;;;;;;4975696;28;20180;-64
2023/03/26 06:01:04;;;;;;;0.82;0.75;;;9.10;99.90;;;;;;4975722;28;20180;-65
2023/03/26 06:03:30;;;;;;;1.05;1.00;;;9.10;99.90;;;;;;4975788;28;20646;-64
2023/03/26 06:05:56;;;;;;;0.98;0.93;;;9.10;99.90;;;;;;4975681;28;20220;-63
2023/03/26 06:08:22;;;;;;;4.80;0.77;;;9.10;99.90;;;;;;4975605;28;20199;-61
2023/03/26 06:10:49;;;;;;;1.30;0.70;;;9.10;99.90;;;;;;4975891;28;20176;-62
2023/03/26 06:13:15;;;;;;;4.07;1.52;;;9.00;99.90;;;;;;4975223;28;20534;-63
2023/03/26 06:15:41;;;;;;;1.90;0.85;;;9.00;99.90;;;;;;4975644;28;20186;-65
2023/03/26 06:18:07;;;;;;;6.25;1.35;;;9.00;99.90;;;;;;4975598;28;20255;-66
2023/03/26 06:20:33;;;;;;;1.33;0.77;;;9.00;99.90;;;;;;4974615;28;20267;-66
2023/03/26 06:22:58;;;;;;;3.20;1.00;;;9.00;99.90;;;;;;4975393;28;20721;-63
2023/03/26 06:25:24;;;;;;;1.07;0.67;;;9.00;99.90;;;;;;4975491;28;20207;-66
2023/03/26 06:27:49;;;;;;;1.90;0.87;;;9.10;99.90;;;;;;4974958;28;20670;-64
2023/03/26 06:30:15;;;;;;;0.97;0.63;;;9.10;99.90;;;;;;4975162;28;20182;-63
2023/03/26 06:32:41;;;;;;;0.67;0.67;;;9.10;99.90;;;;;;4975422;28;20176;-66
2023/03/26 06:35:07;;;;;;;0.80;0.80;;;9.10;99.90;;;;;;4974942;28;20195;-63
2023/03/26 06:37:32;;;;;;;1.42;1.00;;;9.10;99.90;;;;;;4975469;28;20507;-63
2023/03/26 06:39:58;;;;;;;0.80;0.80;;;9.10;99.90;;;;;;4975431;28;20188;-63
2023/03/26 06:42:24;;;;;;;0.60;0.60;;;9.20;99.90;;;;;;4975158;28;20253;-66
2023/03/26 06:44:49;;;;;;;1.43;1.27;;;9.20;99.90;;;;;;4974734;28;20222;-64
2023/03/26 06:47:15;;;;;;;0.73;0.70;;;9.30;99.90;;;;;;4974780;28;20207;-66
2023/03/26 06:49:40;;;;;;;0.87;0.87;;;9.30;99.90;;;;;;4974662;28;20647;-66
2023/03/26 06:52:06;;;;;;;1.23;0.93;;;9.30;99.90;;;;;;4974851;28;20187;-63
2023/03/26 06:54:32;;;;;;;0.57;0.57;;;9.40;99.90;;;;;;4973351;28;20198;-62
2023/03/26 06:56:58;;;;;;;2.77;0.93;;;9.40;99.90;;;;;;4974891;28;20176;-66
2023/03/26 06:59:24;;;;;;;2.10;1.10;;;9.50;99.90;;;;;;4973719;28;20630;-65
2023/03/26 07:01:50;;;;;;;1.70;0.95;;;9.50;99.90;;;;;;4974838;28;20646;-65
2023/03/26 07:04:16;;;;;;;3.23;1.10;;;9.50;99.90;;;;;;4974327;28;20208;-64
2023/03/26 07:06:41;;;;;;;0.80;0.80;;;9.50;99.90;;;;;;4974473;28;20630;-64
2023/03/26 07:09:07;;;;;;;1.50;0.80;;;9.50;99.90;;;;;;4974792;28;20176;-62
2023/03/26 07:11:32;;;;;;;0.80;0.80;;;9.50;99.90;;;;;;4974695;28;20198;-64
2023/03/26 07:13:58;;;;;;;0.83;0.80;;;9.50;99.90;;;;;;4974475;28;20557;-66
2023/03/26 07:16:24;;;;;;;1.90;0.80;;;9.50;99.90;;;;;;4974911;28;20630;-64
2023/03/26 07:18:50;;;;;;;0.97;0.97;;;9.60;99.90;;;;;;4974544;28;20267;-64
2023/03/26 07:21:16;;;;;;;1.67;0.75;;;9.60;99.90;;;;;;4974776;28;20251;-62
2023/03/26 07:23:42;;;;;;;3.90;0.70;;;9.70;99.90;;;;;;4974233;28;20171;-64
2023/03/26 07:26:41;;;;;;;0.80;0.80;;;9.80;99.90;;;;;;4974582;28;20408;-65
2023/03/26 07:29:32;;;;;;;2.15;0.55;;;9.80;99.90;;;;;;4974655;28;21015;-65
2023/03/26 07:32:12;;;;;;;1.02;0.80;;;9.80;99.90;;;;;;4974276;28;20184;-64
2023/03/26 07:34:56;;;;;;;3.80;0.90;;;9.90;99.90;;;;;;4974294;28;20198;-64
2023/03/26 07:37:34;;;;;;;5.00;0.70;;;9.90;99.90;;;;;;4974584;28;20172;-64
2023/03/26 07:40:33;;;;;;;2.67;1.00;;;9.90;99.90;;;;;;4974445;28;20167;-63
2023/03/26 07:42:59;;;;;;;1.42;0.93;;;9.80;99.90;;;;;;4974281;28;20172;-64
2023/03/26 07:45:38;;;;;;;0.60;0.60;;;9.80;99.90;;;;;;4973636;28;20207;-63
2023/03/26 07:48:28;;;;;;;1.50;0.85;;;9.70;99.90;;;;;;4973705;28;20554;-64
2023/03/26 07:50:54;;;;;;;3.13;1.38;;;9.50;99.90;;;;;;4973948;28;20527;-65
2023/03/26 07:53:21;;;;;;;0.88;0.88;;;9.30;99.90;;;;;;4973980;28;20246;-64
2023/03/26 07:55:51;;;;;;;2.25;1.00;;;9.20;99.90;;;;;;4974465;28;20543;-65
2023/03/26 07:58:42;;;;;;;0.88;0.82;;;9.10;99.90;;;;;;4974726;28;20526;-64
2023/03/26 08:01:22;;;;;;;2.05;1.00;;;8.90;99.90;;;;;;4975479;28;20188;-67
2023/03/26 08:04:07;;;;;;;3.78;1.10;;;8.80;99.90;;;;;;4977823;28;20538;-62
2023/03/26 08:06:43;;;;;;;1.15;1.05;;;8.60;99.90;;;;;;4977941;28;20722;-64
2023/03/26 08:09:12;;;;;;;1.35;0.80;;;8.40;99.90;;;;;;4976889;28;20187;-62
2023/03/26 08:11:49;;;;;;;3.63;1.65;;;8.20;99.90;;;;;;4977833;28;20202;-64
2023/03/26 08:14:29;;;;;;;3.35;1.67;;;8.20;99.90;;;;;;4977399;28;20187;-64
2023/03/26 08:17:07;;;;;;;7.00;2.47;;;8.10;99.90;;;;;;4977687;28;20529;-63
2023/03/26 08:20:01;;;;;;;1.60;0.80;;;8.10;99.90;;;;;;4978018;28;20172;-64
2023/03/26 08:22:40;;;;;;;1.88;1.23;;;8.00;99.90;;;;;;4977965;28;20190;-63
2023/03/26 08:25:26;;;;;;;5.97;1.73;;;8.00;99.90;;;;;;4976113;28;20207;-63
2023/03/26 08:28:10;;;;;;;1.20;1.10;;;7.90;99.90;;;;;;4977878;28;20203;-63
2023/03/26 08:30:36;;;;;;;3.38;1.40;;;7.90;99.90;;;;;;4976242;28;20178;-63
2023/03/26 08:33:10;;;;;;;3.73;1.63;;;7.90;99.90;;;;;;4977366;28;20254;-64
2023/03/26 08:35:41;;;;;;;1.40;1.00;;;7.90;99.90;;;;;;4977628;28;20522;-63
2023/03/26 08:38:13;;;;;;;2.15;1.35;;;7.90;99.90;;;;;;4977389;28;20266;-62
2023/03/26 08:41:10;;;;;;;6.68;1.25;;;7.90;99.90;;;;;;4977425;28;20179;-63
2023/03/26 08:43:47;;;;;;;6.38;1.33;;;8.00;99.90;;;;;;4977252;28;20586;-63
2023/03/26 08:46:15;;;;;;;1.23;1.13;;;8.00;99.90;;;;;;4977375;28;20178;-62
2023/03/26 08:49:26;;;;;;;2.88;1.65;;;8.00;99.90;;;;;;4977357;28;20226;-64
2023/03/26 08:52:20;;;;;;;1.38;1.27;;;8.00;99.90;;;;;;4977403;28;20176;-62
2023/03/26 08:55:23;;;;;;;3.70;1.65;;;8.00;99.90;;;;;;4960655;28;20673;-63
2023/03/26 08:58:10;;;;;;;1.95;1.33;;;8.00;99.90;;;;;;4977370;28;20180;-64
2023/03/26 09:01:23;;;;;;;1.13;1.02;;;8.10;99.90;;;;;;4977348;28;20203;-64
2023/03/26 09:04:17;;;;;;;1.10;1.10;;;8.10;99.90;;;;;;4970380;28;20191;-63
2023/03/26 09:07:05;;;;;;;1.88;1.60;;;8.20;99.90;;;;;;4976866;28;20187;-61
2023/03/26 09:09:50;;;;;;;1.20;1.20;;;8.20;99.90;;;;;;4961931;28;20223;-61
2023/03/26 09:12:31;;;;;;;1.80;1.20;;;8.30;99.90;;;;;;4976844;28;20176;-62
2023/03/26 09:15:27;;;;;;;1.35;1.10;;;8.40;99.90;;;;;;4976404;28;20234;-62
2023/03/26 09:18:17;;;;;;;1.75;1.65;;;8.50;99.90;;;;;;4976766;28;20176;-61
2023/03/26 09:21:24;;;;;;;3.50;1.05;;;8.70;99.90;;;;;;4976367;28;20211;-62
2023/03/26 09:24:24;;;;;;;1.67;1.15;;;9.10;99.90;;;;;;4976308;28;20649;-61
2023/03/26 09:27:08;;;;;;;1.88;1.50;;;9.30;99.90;;;;;;4976741;28;20180;-62
2023/03/26 09:29:58;;;;;;;4.45;1.10;;;9.50;99.90;;;;;;4976848;28;20175;-62
2023/03/26 09:33:10;;;;;;;2.00;1.90;;;9.70;99.90;;;;;;4976629;28;20172;-63
2023/03/26 09:36:02;;;;;;;1.38;1.17;;;9.90;99.90;;;;;;4976415;28;20199;-62
2023/03/26 09:38:43;;;;;;;0.90;0.88;;;10.00;99.90;;;;;;4976529;28;20176;-62
2023/03/26 09:41:32;;;;;;;0.85;0.80;;;10.10;99.90;;;;;;4976201;28;20701;-62
2023/03/26 09:44:36;;;;;;;2.15;1.65;;;10.20;99.90;;;;;;4976059;28;20173;-63
2023/03/26 09:47:34;;;;;;;1.08;0.88;;;10.50;99.90;;;;;;4976293;28;20650;-62
2023/03/26 09:50:36;;;;;;;1.10;0.83;;;10.80;99.90;;;;;;4967201;28;20193;-63
2023/03/26 09:53:25;;;;;;;2.03;1.10;;;11.10;99.90;;;;;;4975681;28;20787;-64
2023/03/26 09:56:29;;;;;;;0.90;0.90;;;11.40;99.90;;;;;;4976084;28;20437;-62
2023/03/26 09:59:27;;;;;;;0.80;0.80;;;11.90;99.90;;;;;;4954936;29;20420;-64
2023/03/26 10:02:14;;;;;;;1.27;0.80;;;12.20;99.90;;;;;;4946651;29;20961;-64
2023/03/26 10:04:59;;;;;;;0.90;0.90;;;12.50;99.90;;;;;;4971375;28;20447;-62
2023/03/26 10:07:33;;;;;;;1.63;0.90;;;12.70;99.90;;;;;;4975695;28;20471;-63
2023/03/26 10:10:20;;;;;;;1.43;0.87;;;12.80;99.90;;;;;;4975656;28;20418;-62
2023/03/26 10:12:53;;;;;;;1.80;1.70;;;12.80;99.90;;;;;;4975906;28;20419;-65
2023/03/26 10:15:50;;;;;;;2.33;1.20;;;13.00;99.90;;;;;;4975150;28;20435;-64
2023/03/26 10:18:58;;;;;;;1.90;1.20;;;13.10;99.90;;;;;;4975397;28;20522;-64
2023/03/26 10:21:38;;;;;;;1.13;1.00;;;13.20;99.90;;;;;;4972759;28;20431;-65
2023/03/26 10:24:28;;;;;;;0.80;0.80;;;13.50;99.90;;;;;;4975075;28;20440;-63
2023/03/26 10:27:10;;;;;;;0.80;0.80;;;13.80;99.90;;;;;;4975484;28;20421;-64
2023/03/26 10:29:38;;;;;;;0.60;0.60;;;14.30;99.90;;;;;;4975543;28;20430;-66
2023/03/26 10:32:22;;;;;;;0.70;0.70;;;14.90;99.90;;;;;;4975529;28;20755;-63
2023/03/26 10:35:02;;;;;;;3.87;2.97;;;15.10;99.90;;;;;;4955592;28;20444;-66
2023/03/26 10:38:04;;;;;;;1.77;1.67;;;15.10;99.90;;;;;;4955811;28;20405;-65
2023/03/26 10:40:41;;;;;;;2.20;0.90;;;15.00;99.90;;;;;;4956051;28;20731;-63
2023/03/26 10:43:35;;;;;;;0.73;0.73;;;14.90;99.90;;;;;;4955570;28;20461;-66
2023/03/26 10:46:42;;;;;;;0.87;0.63;;;15.10;99.90;;;;;;4959123;28;20756;-65
2023/03/26 10:49:11;;;;;;;0.50;0.50;;;15.70;99.90;;;;;;4975179;28;20476;-66
2023/03/26 10:51:40;;;;;;;0.90;0.60;;;16.60;99.90;;;;;;4975133;28;20409;-64
2023/03/26 10:54:21;;;;;;;1.30;1.00;;;17.10;99.90;;;;;;4974192;28;20435;-67
2023/03/26 10:56:50;;;;;;;2.30;0.93;;;17.40;99.90;;;;;;4975073;28;20944;-66
2023/03/26 10:59:16;;;;;;;1.00;1.00;;;17.50;99.50;;;;;;4975454;28;20873;-65
2023/03/26 11:02:20;;;;;;;0.80;0.80;;;17.70;99.90;;;;;;4975160;28;20412;-64
2023/03/26 11:05:03;;;;;;;2.10;0.83;;;17.60;97.80;;;;;;4974394;28;20487;-64
2023/03/26 11:07:40;;;;;;;0.70;0.70;;;17.40;97.70;;;;;;4974744;28;20957;-65
2023/03/26 11:10:23;;;;;;;0.90;0.67;;;17.10;97.40;;;;;;4975182;28;20415;-63
2023/03/26 11:13:00;;;;;;;1.70;0.77;;;16.60;97.00;;;;;;4974874;28;20414;-65
2023/03/26 11:15:57;;;;;;;0.70;0.70;;;16.20;97.40;;;;;;4974551;28;20443;-64
2023/03/26 11:18:47;;;;;;;0.90;0.67;;;15.80;97.90;;;;;;4963792;28;20435;-65
2023/03/26 11:21:17;;;;;;;8.70;1.07;;;15.40;97.30;;;;;;4974613;28;20412;-66
2023/03/26 11:23:58;;;;;;;0.60;0.57;;;14.90;98.40;;;;;;4974224;28;20421;-67
2023/03/26 11:26:54;;;;;;;0.77;0.63;;;14.60;98.60;;;;;;4973398;28;20419;-65
2023/03/26 11:29:37;;;;;;;1.03;0.80;;;14.40;98.20;;;;;;4974181;28;20419;-64
2023/03/26 11:32:16;;;;;;;0.80;0.80;;;14.30;99.30;;;;;;4974443;28;20426;-65
2023/03/26 11:35:06;;;;;;;0.70;0.67;;;14.40;99.40;;;;;;4973705;28;20915;-65
2023/03/26 11:37:41;;;;;;;0.50;0.50;;;14.50;98.10;;;;;;4974229;28;20489;-64
2023/03/26 11:40:20;;;;;;;0.50;0.50;;;14.70;98.90;;;;;;4974406;28;20493;-63
2023/03/26 11:42:48;;;;;;;0.70;0.70;;;15.00;98.70;;;;;;4974243;28;20414;-66
2023/03/26 11:45:23;;;;;;;0.50;0.50;;;15.40;98.50;;;;;;4973827;28;20436;-64
2023/03/26 11:47:50;;;;;;;0.80;0.80;;;15.60;96.00;;;;;;4974422;28;20452;-64
2023/03/26 11:50:22;;;;;;;1.53;1.10;;;15.70;94.10;;;;;;4974106;28;20476;-63
2023/03/26 11:52:48;;;;;;;1.50;0.80;;;15.70;94.90;;;;;;4974503;28;20455;-64
2023/03/26 11:55:14;;;;;;;1.30;0.60;;;15.80;95.00;;;;;;4973945;28;20987;-65
2023/03/26 11:57:46;;;;;;;1.73;0.70;;;15.80;95.00;;;;;;4974228;28;20446;-64
2023/03/26 12:00:19;;;;;;;1.33;1.23;;;15.70;94.50;;;;;;4974226;28;20413;-64
2023/03/26 12:02:46;;;;;;;2.20;0.60;;;15.60;95.10;;;;;;4974341;28;20504;-62
2023/03/26 12:05:25;;;;;;;1.07;0.60;;;15.60;94.20;;;;;;4973639;28;20493;-63
2023/03/26 12:08:16;;;;;;;0.50;0.50;;;15.50;94.20;;;;;;4974076;28;20472;-66
2023/03/26 12:10:42;;;;;;;4.40;0.60;;;15.30;94.60;;;;;;4974442;28;20837;-64
2023/03/26 12:13:13;;;;;;;0.70;0.53;;;15.10;95.40;;;;;;4974109;28;20477;-66
2023/03/26 12:15:42;;;;;;;1.13;0.60;;;15.00;96.20;;;;;;4954962;28;20489;-65
2023/03/26 12:18:26;;;;;;;0.70;0.60;;;14.70;96.50;;;;;;4953558;29;20468;-63
2023/03/26 12:21:04;;;;;;;0.70;0.60;;;14.50;97.50;;;;;;4954829;28;20413;-66
2023/03/26 12:23:55;;;;;;;1.03;0.63;;;14.10;98.70;;;;;;4954612;28;20415;-66
2023/03/26 12:26:32;;;;;;;0.80;0.80;;;13.70;99.90;;;;;;4951663;29;20927;-64
2023/03/26 12:29:12;;;;;;;0.77;0.70;;;13.40;99.90;;;;;;4963035;28;20498;-63
2023/03/26 12:32:06;;;;;;;0.73;0.73;;;13.20;99.90;;;;;;4974256;28;20410;-65
2023/03/26 12:34:34;;;;;;;2.83;1.10;;;13.10;99.90;;;;;;4974166;28;20430;-66
2023/03/26 12:37:02;;;;;;;0.60;0.50;;;13.10;99.90;;;;;;4974622;28;20421;-65
2023/03/26 12:39:32;;;;;;;0.60;0.60;;;13.20;99.90;;;;;;4974175;28;20419;-64
2023/03/26 12:42:00;;;;;;;0.70;0.60;;;13.20;99.90;;;;;;4974550;28;20931;-62
2023/03/26 12:44:44;;;;;;;0.70;0.70;;;13.10;99.90;;;;;;4974615;28;20482;-64
2023/03/26 12:47:19;;;;;;;0.53;0.50;;;13.20;99.90;;;;;;4978538;28;20465;-66
2023/03/26 12:49:47;;;;;;;1.07;0.60;;;13.20;99.90;;;;;;4978674;28;20414;-66
2023/03/26 12:52:37;;;;;;;1.63;0.73;;;13.30;99.90;;;;;;4978570;28;20471;-63
2023/03/26 12:55:08;;;;;;;1.43;0.60;;;13.30;99.90;;;;;;4977641;28;20492;-64
2023/03/26 12:57:46;;;;;;;0.60;0.60;;;13.20;99.90;;;;;;4978056;28;20442;-65
2023/03/26 13:00:42;;;;;;;0.60;0.60;;;13.30;99.90;;;;;;4977551;28;20498;-65
2023/03/26 13:03:20;;;;;;;2.10;0.80;;;13.20;99.90;;;;;;4976896;28;20481;-65
2023/03/26 13:06:07;;;;;;;0.90;0.90;;;13.30;99.90;;;;;;4976830;28;20505;-63
2023/03/26 13:08:41;;;;;;;0.90;0.90;;;13.50;99.90;;;;;;4977041;28;20466;-66
2023/03/26 13:11:51;;;;;;;0.70;0.70;;;13.80;99.90;;;;;;4976746;28;20419;-66
2023/03/26 13:14:33;;;;;;;1.27;1.07;;;14.00;99.90;;;;;;4971746;28;20471;-66
2023/03/26 13:17:41;;;;;;;0.70;0.70;;;14.20;99.90;;;;;;4976711;28;20798;-65
2023/03/26 13:20:46;;;;;;;2.53;0.80;;;14.30;99.90;;;;;;4976912;28;20829;-66
2023/03/26 13:23:17;;;;;;;0.93;0.90;;;14.50;99.90;;;;;;4966161;28;20515;-66
2023/03/26 13:26:12;;;;;;;0.67;0.67;;;14.50;99.90;;;;;;4976757;28;20806;-64
2023/03/26 13:28:55;;;;;;;0.63;0.63;;;14.60;99.90;;;;;;4971954;28;20472;-66
2023/03/26 13:31:41;;;;;;;0.87;0.87;;;14.70;99.90;;;;;;4976787;28;20415;-64
2023/03/26 13:34:21;;;;;;;1.40;0.90;;;14.70;99.90;;;;;;4976128;28;20790;-63
2023/03/26 13:37:06;;;;;;;0.70;0.70;;;14.60;99.90;;;;;;4976432;28;21084;-65
2023/03/26 13:40:19;;;;;;;1.07;0.90;;;14.60;99.90;;;;;;4976644;28;20414;-64
2023/03/26 13:43:03;;;;;;;1.70;0.70;;;14.70;99.90;;;;;;4960142;28;20507;-64
2023/03/26 13:46:22;;;;;;;1.00;0.90;;;14.70;99.90;;;;;;4976234;28;20432;-66
2023/03/26 13:49:00;;;;;;;1.27;1.17;;;14.70;99.90;;;;;;4954513;29;20480;-63
2023/03/26 13:51:37;;;;;;;0.90;0.50;;;14.70;99.90;;;;;;4969835;28;20938;-65
2023/03/26 13:54:15;;;;;;;1.17;1.03;;;14.80;99.90;;;;;;4975536;28;20439;-66
2023/03/26 13:56:57;;;;;;;0.70;0.60;;;15.00;99.90;;;;;;4975782;28;20763;-65
2023/03/26 13:59:34;;;;;;;0.73;0.57;;;15.10;99.90;;;;;;4976030;28;20413;-64
2023/03/26 14:02:10;;;;;;;1.00;0.77;;;15.10;99.90;;;;;;4975701;28;20968;-63
2023/03/26 14:04:51;;;;;;;1.00;1.00;;;15.10;99.90;;;;;;4975526;28;20487;-63
2023/03/26 14:07:39;;;;;;;0.57;0.57;;;15.00;99.30;;;;;;4975819;28;20474;-66
2023/03/26 14:10:17;;;;;;;0.60;0.50;;;14.80;99.00;;;;;;4975873;28;20890;-63
2023/03/26 14:12:57;;;;;;;2.33;1.43;;;14.70;99.70;;;;;;4976057;28;20798;-63
2023/03/26 14:15:26;;;;;;;1.60;0.97;;;14.50;99.90;;;;;;4975562;28;20490;-65
2023/03/26 14:18:05;;;;;;;2.87;1.00;;;14.40;99.90;;;;;;4975894;28;20771;-64
2023/03/26 14:20:58;;;;;;;1.37;0.77;;;14.30;99.90;;;;;;4975580;28;20430;-66
2023/03/26 14:23:30;;;;;;;0.90;0.80;;;14.30;99.90;;;;;;4975341;28;20427;-64
2023/03/26 14:26:14;;;;;;;1.00;0.90;;;14.30;99.90;;;;;;4975568;28;20612;-64
2023/03/26 14:28:52;;;;;;;1.63;1.10;;;14.30;99.90;;;;;;4975571;28;21063;-64
2023/03/26 14:31:27;;;;;;;2.33;1.67;;;14.20;99.90;;;;;;4975186;28;20937;-64
2023/03/26 14:33:59;;;;;;;3.93;0.90;;;14.10;99.90;;;;;;4975034;28;20408;-65
2023/03/26 14:36:49;;;;;;;1.60;0.80;;;14.10;99.90;;;;;;4975643;28;20408;-63
2023/03/26 14:39:36;;;;;;;0.70;0.70;;;14.00;99.90;;;;;;4975435;28;20411;-66
2023/03/26 14:42:18;;;;;;;0.67;0.60;;;13.80;99.90;;;;;;4975357;28;20984;-64
2023/03/26 14:45:18;;;;;;;0.60;0.60;;;13.70;99.90;;;;;;4974822;28;20961;-66
2023/03/26 14:48:12;;;;;;;0.93;0.60;;;13.50;98.60;;;;;;4975002;28;20802;-65
2023/03/26 14:51:02;;;;;;;3.80;0.97;;;13.00;99.70;;;;;;4956024;28;20421;-64
2023/03/26 14:53:35;;;;;;;0.60;0.60;;;12.60;99.90;;;;;;4955716;28;20747;-65
2023/03/26 14:56:12;;;;;;;0.90;0.70;;;12.20;99.90;;;;;;4956073;28;20755;-64
2023/03/26 14:59:07;;;;;;;0.97;0.60;;;11.80;99.90;;;;;;4962887;28;20516;-66
2023/03/26 15:01:39;;;;;;;0.60;0.60;;;11.40;99.90;;;;;;4964158;28;20429;-66
2023/03/26 15:04:29;;;;;;;0.52;0.52;;;11.10;99.90;;;;;;4974591;28;20440;-66
2023/03/26 15:07:12;;;;;;;0.60;0.60;;;10.80;99.90;;;;;;4974607;28;20187;-66
2023/03/26 15:10:08;;;;;;;0.82;0.65;;;10.50;99.90;;;;;;4974264;28;20196;-66
2023/03/26 15:13:14;;;;;;;0.57;0.50;;;10.20;99.90;;;;;;4974682;28;20191;-65
2023/03/26 15:15:49;;;;;;;0.32;0.32;;;10.00;99.90;;;;;;4974469;28;20215;-65
2023/03/26 15:18:14;;;;;;;0.60;0.60;;;9.90;99.90;;;;;;4975023;28;20539;-65
2023/03/26 15:21:05;;;;;;;0.73;0.73;;;9.90;99.90;;;;;;4974286;28;20195;-65
2023/03/26 15:23:53;;;;;;;4.35;0.70;;;10.00;99.90;;;;;;4974329;28;20246;-66
2023/03/26 15:26:40;;;;;;;0.60;0.60;;;10.10;99.90;;;;;;4974825;28;20258;-66
2023/03/26 15:29:28;;;;;;;0.80;0.70;;;10.10;99.90;;;;;;4974093;28;20258;-66
2023/03/26 15:31:54;;;;;;;1.00;1.00;;;10.20;99.90;;;;;;4974634;28;20628;-67
2023/03/26 15:34:50;;;;;;;0.40;0.40;;;10.20;99.90;;;;;;4965402;28;20196;-65
2023/03/26 15:37:22;;;;;;;0.50;0.50;;;10.20;99.90;;;;;;4955919;28;20180;-65
2023/03/26 15:40:11;;;;;;;0.52;0.52;;;10.20;99.90;;;;;;4955174;28;20192;-65
2023/03/26 15:43:12;;;;;;;1.27;0.70;;;10.20;99.90;;;;;;4953420;28;20184;-66
2023/03/26 15:46:10;;;;;;;0.30;0.30;;;10.20;99.90;;;;;;4974483;28;20545;-65
2023/03/26 15:48:55;;;;;;;0.65;0.47;;;10.10;99.90;;;;;;4965655;28;20219;-64
2023/03/26 15:51:44;;;;;;;0.40;0.40;;;10.00;99.90;;;;;;4974737;28;20575;-64
2023/03/26 15:54:33;;;;;;;0.60;0.60;;;10.00;99.90;;;;;;4974091;28;20619;-66
2023/03/26 15:57:18;;;;;;;2.63;0.73;;;9.80;99.90;;;;;;4974392;28;20260;-66
2023/03/26 16:00:22;;;;;;;1.25;0.55;;;9.80;99.90;;;;;;4973134;28;20226;-66
2023/03/26 16:03:09;;;;;;;0.65;0.60;;;9.70;99.90;;;;;;4974193;28;20184;-66
2023/03/26 16:06:01;;;;;;;0.50;0.50;;;9.70;99.90;;;;;;4974169;28;20678;-67
2023/03/26 16:09:03;;;;;;;1.00;0.60;;;9.70;99.90;;;;;;4974144;28;20279;-66
2023/03/26 16:11:51;;;;;;;0.65;0.50;;;9.60;99.90;;;;;;4973991;28;20172;-65
2023/03/26 16:14:41;;;;;;;0.60;0.60;;;9.60;99.90;;;;;;4954591;28;20193;-64
2023/03/26 16:17:22;;;;;;;0.50;0.40;;;9.60;99.90;;;;;;4954889;28;20187;-65
2023/03/26 16:20:08;;;;;;;0.50;0.50;;;9.50;99.90;;;;;;4965806;28;20720;-67
2023/03/26 16:23:02;;;;;;;0.75;0.50;;;9.50;99.90;;;;;;4977283;28;20263;-63
2023/03/26 16:25:33;;;;;;;0.68;0.63;;;9.50;99.90;;;;;;4973352;28;20200;-65
2023/03/26 16:28:26;;;;;;;0.63;0.63;;;9.50;99.90;;;;;;4977837;28;20230;-65
2023/03/26 16:31:08;;;;;;;2.40;2.20;;;9.50;99.90;;;;;;4960071;28;20208;-70
2023/03/26 16:34:02;;;;;;;1.52;1.42;;;9.50;99.90;;;;;;4976976;28;20164;-65
2023/03/26 16:36:41;;;;;;;1.08;0.98;;;9.50;99.90;;;;;;4967965;28;20268;-62
2023/03/26 16:39:10;;;;;;;1.55;0.80;;;9.50;99.90;;;;;;4958234;28;20199;-65
2023/03/26 16:41:39;;;;;;;1.00;0.88;;;9.50;99.90;;;;;;4957684;28;20640;-63
2023/03/26 16:44:25;;;;;;;0.65;0.65;;;9.50;99.90;;;;;;4957541;28;20196;-63
2023/03/26 16:47:05;;;;;;;1.15;1.10;;;9.40;99.90;;;;;;4957986;28;20515;-65
2023/03/26 16:50:01;;;;;;;1.15;1.15;;;9.40;99.90;;;;;;4969310;28;20180;-67
2023/03/26 16:52:36;;;;;;;1.23;1.23;;;9.40;99.90;;;;;;4977052;28;20280;-68
2023/03/26 16:55:27;;;;;;;1.65;0.80;;;9.40;99.90;;;;;;4975285;28;20195;-66
2023/03/26 16:58:10;;;;;;;0.55;0.55;;;9.30;99.90;;;;;;4976991;28;20277;-67
2023/03/26 17:01:04;;;;;;;0.88;0.88;;;9.20;99.90;;;;;;4977032;28;20172;-65
2023/03/26 17:03:40;;;;;;;0.70;0.70;;;9.20;99.90;;;;;;4976441;28;20208;-67
2023/03/26 17:06:24;;;;;;;0.65;0.65;;;9.10;99.90;;;;;;4976821;28;20191;-67
2023/03/26 17:09:29;;;;;;;1.17;1.08;;;9.00;99.90;;;;;;4976993;28;20187;-68
2023/03/26 17:12:07;;;;;;;0.57;0.57;;;9.00;99.90;;;;;;4957449;28;20209;-65
2023/03/26 17:14:38;;;;;;;0.40;0.40;;;8.90;99.90;;;;;;4957171;28;20558;-67
2023/03/26 17:17:35;;;;;;;0.60;0.60;;;8.90;99.90;;;;;;4957285;28;20709;-64
2023/03/26 17:20:31;;;;;;;1.05;0.95;;;8.90;99.90;;;;;;4968436;28;20231;-63
2023/03/26 17:23:38;;;;;;;1.83;0.90;;;8.90;99.90;;;;;;4974491;28;20251;-65
2023/03/26 17:26:18;;;;;;;2.53;2.00;;;8.80;99.90;;;;;;4968522;28;20524;-63
2023/03/26 17:29:08;;;;;;;0.80;0.80;;;8.80;99.90;;;;;;4962213;28;20250;-66
2023/03/26 17:31:58;;;;;;;0.50;0.50;;;8.80;99.90;;;;;;4965180;28;20192;-63
2023/03/26 17:34:51;;;;;;;0.85;0.73;;;8.80;99.90;;;;;;4974952;28;20188;-66
2023/03/26 17:37:24;;;;;;;1.17;1.10;;;8.80;99.90;;;;;;4962730;28;20188;-65
2023/03/26 17:39:50;;;;;;;0.65;0.65;;;8.70;99.90;;;;;;4967343;28;20184;-66
2023/03/26 17:42:17;;;;;;;0.53;0.53;;;8.70;99.90;;;;;;4974829;28;20267;-65
2023/03/26 17:44:47;;;;;;;1.17;1.08;;;8.70;99.90;;;;;;4967859;28;20559;-66
2023/03/26 17:47:28;;;;;;;0.75;0.75;;;8.70;99.90;;;;;;4976174;28;20638;-66
2023/03/26 17:50:25;;;;;;;0.82;0.82;;;8.60;99.90;;;;;;4976224;28;20179;-64
2023/03/26 17:53:23;;;;;;;1.50;1.40;;;8.60;99.90;;;;;;4975770;28;20180;-66
2023/03/26 17:55:51;;;;;;;2.00;1.90;;;8.60;99.90;;;;;;4975985;28;20271;-65
2023/03/26 17:58:25;;;;;;;3.10;1.48;;;8.60;99.90;;;;;;4975704;28;20172;-66
2023/03/26 18:01:01;;;;;;;0.80;0.70;;;8.60;99.90;;;;;;4974900;28;20206;-66
2023/03/26 18:03:54;;;;;;;0.90;0.90;;;8.60;99.90;;;;;;4974367;28;20179;-67
2023/03/26 18:06:59;;;;;;;0.80;0.80;;;8.50;99.90;;;;;;4975468;28;20200;-65
2023/03/26 18:10:11;;;;;;;0.88;0.47;;;8.60;99.90;;;;;;4974988;28;20195;-68
2023/03/26 18:13:01;;;;;;;0.60;0.60;;;8.60;99.90;;;;;;4974540;28;20182;-65
2023/03/26 18:15:27;;;;;;;0.90;0.60;;;8.60;99.90;;;;;;4974366;28;20692;-66
2023/03/26 18:18:11;;;;;;;1.03;0.67;;;8.60;99.90;;;;;;4974319;28;20180;-69
2023/03/26 18:20:37;;;;;;;0.68;0.63;;;8.60;99.90;;;;;;4974315;28;20250;-67
2023/03/26 18:23:23;;;;;;;1.08;0.80;;;8.60;99.90;;;;;;4975077;28;20168;-72
2023/03/26 18:25:56;;;;;;;3.45;2.10;;;8.60;99.90;;;;;;4974360;28;20500;-71
2023/03/26 18:28:29;;;;;;;1.60;1.50;;;8.70;99.90;;;;;;4974878;28;20324;-72
2023/03/26 18:31:05;;;;;;;0.50;0.40;;;8.70;99.90;;;;;;4970982;28;20172;-67
2023/03/26 18:33:41;;;;;;;1.05;0.50;;;8.70;99.90;;;;;;4971302;28;20180;-68
2023/03/26 18:36:10;;;;;;;0.80;0.80;;;8.70;99.90;;;;;;4973944;28;20414;-71
2023/03/26 18:38:36;;;;;;;0.60;0.60;;;8.70;99.90;;;;;;4974920;28;20176;-67
2023/03/26 18:41:02;;;;;;;0.40;0.40;;;8.60;99.90;;;;;;4969837;28;20529;-67
2023/03/26 18:43:28;;;;;;;1.33;0.50;;;8.60;99.90;;;;;;4955256;28;20168;-69
2023/03/26 18:45:54;;;;;;;0.90;0.90;;;8.60;99.90;;;;;;4955118;28;20207;-67
2023/03/26 18:48:26;;;;;;;0.90;0.70;;;8.50;99.90;;;;;;4961329;28;20191;-69
2023/03/26 18:50:55;;;;;;;0.68;0.50;;;8.50;99.90;;;;;;4975002;28;20218;-66
2023/03/26 18:53:29;;;;;;;0.50;0.50;;;8.40;99.90;;;;;;4974283;28;20172;-66
2023/03/26 18:55:56;;;;;;;5.78;0.65;;;8.40;99.90;;;;;;4974290;28;20279;-66
2023/03/26 18:58:34;;;;;;;0.80;0.80;;;8.40;99.90;;;;;;4967796;28;20181;-67
2023/03/26 19:01:06;;;;;;;0.70;0.47;;;8.30;99.90;;;;;;4955600;28;20176;-67
2023/03/26 19:03:39;;;;;;;0.77;0.77;;;8.30;99.90;;;;;;4961016;28;20186;-67